Pace, Florida
Current Conditions -  °F | °C
As of 8:30 AM on Friday 19 Dec 2014 (Local Time) from KNDZ Reporting Station
Light Rain Light Rain  
Wind Chill: 51°   Ceiling: 9000
Heat Index: 51°   Visibility: 5mi
Dew Point: 41°   Wind: 10mph
Humidity: 68%   Direction: 60°ENE
Pressure: 30.14"   Gusts: NA
Location:  30.6712°N, 87.194°W
Report Text: KNDZ 191430Z 06009KT 5SM -RA SCT028 SCT041 OVC090 11/05 A3014 RMK AO2 RAB16 P0001 T01060050
Loading
Personal Weather Stations






























Interactive Weather Map New forecast layout! Learn more

10-Day Weather Forecast

Advertisements
Track Severe Weather on mobile